Time;durP1;ratioP1;P1;durP2;ratioP2;P2;SDS_P1;SDS_P2;PMS_P1;PMS_P2;Temp;Humidity;BMP_temperature;BMP_pressure;BME280_temperature;BME280_humidity;BME280_pressure;Samples;Min_cycle;Max_cycle;Signal;HPM_P1;HPM_P2
2020/12/14 00:01:29;;;;;;;7.73;5.83;;;;;;;;;;6258765;23;20905;-94
2020/12/14 00:03:55;;;;;;;9.63;6.53;;;;;;;;;;6256073;23;20405;-94
2020/12/14 00:06:22;;;;;;;11.57;6.77;;;;;;;;;;6258170;23;20408;-96
2020/12/14 00:08:48;;;;;;;8.80;6.63;;;;;;;;;;6257854;23;20410;-94
2020/12/14 00:11:14;;;;;;;9.57;7.30;;;;;;;;;;6256700;23;20993;-95
2020/12/14 00:13:40;;;;;;;10.87;7.30;;;;;;;;;;6257016;23;20409;-95
2020/12/14 00:16:09;;;;;;;9.83;7.47;;;;;;;;;;6257782;23;20406;-96
2020/12/14 00:18:35;;;;;;;12.23;7.87;;;;;;;;;;6255361;23;20503;-95
2020/12/14 00:21:01;;;;;;;9.67;6.93;;;;;;;;;;6254791;23;20405;-95
2020/12/14 00:23:28;;;;;;;10.00;7.00;;;;;;;;;;6254584;23;20437;-96
2020/12/14 00:26:00;;;;;;;9.43;7.10;;;;;;;;;;6256230;23;20405;-96
2020/12/14 00:28:26;;;;;;;7.87;6.10;;;;;;;;;;6260756;23;20413;-96
2020/12/14 00:30:52;;;;;;;10.53;6.77;;;;;;;;;;6259518;23;20457;-96
2020/12/14 00:33:18;;;;;;;9.60;6.87;;;;;;;;;;6259175;23;20424;-93
2020/12/14 00:35:44;;;;;;;7.97;6.07;;;;;;;;;;6256124;23;20457;-92
2020/12/14 00:38:10;;;;;;;9.10;7.37;;;;;;;;;;6257609;23;20422;-95
2020/12/14 00:40:37;;;;;;;6.97;6.27;;;;;;;;;;6259855;23;20402;-95
2020/12/14 00:43:03;;;;;;;8.93;6.47;;;;;;;;;;6259747;23;20720;-94
2020/12/14 00:45:29;;;;;;;7.73;6.03;;;;;;;;;;6256477;23;20432;-94
2020/12/14 00:47:55;;;;;;;8.63;7.13;;;;;;;;;;6255726;23;20406;-96
2020/12/14 00:50:21;;;;;;;8.67;6.43;;;;;;;;;;6262276;23;20406;-96
2020/12/14 00:52:47;;;;;;;9.00;7.23;;;;;;;;;;6260830;23;20417;-95
2020/12/14 00:55:13;;;;;;;8.77;7.13;;;;;;;;;;6260401;23;20453;-95
2020/12/14 00:57:40;;;;;;;8.90;6.63;;;;;;;;;;6261398;23;20423;-95
2020/12/14 01:00:06;;;;;;;7.80;6.77;;;;;;;;;;6256481;23;20997;-93
2020/12/14 01:02:32;;;;;;;10.03;6.83;;;;;;;;;;6255906;23;20406;-94
2020/12/14 01:04:58;;;;;;;9.57;6.80;;;;;;;;;;6252694;23;20409;-94
2020/12/14 01:07:24;;;;;;;10.03;6.93;;;;;;;;;;6254915;23;20425;-93
2020/12/14 01:09:50;;;;;;;10.73;6.53;;;;;;;;;;6258248;23;20406;-96
2020/12/14 01:12:16;;;;;;;11.87;6.60;;;;;;;;;;6256866;23;20476;-94
2020/12/14 01:14:43;;;;;;;10.70;7.03;;;;;;;;;;6257463;23;20453;-93
2020/12/14 01:17:10;;;;;;;10.40;7.10;;;;;;;;;;6260293;23;20402;-94
2020/12/14 01:19:36;;;;;;;8.93;6.33;;;;;;;;;;6259268;23;20445;-96
2020/12/14 01:22:02;;;;;;;10.27;7.10;;;;;;;;;;6261155;23;20412;-96
2020/12/14 01:24:28;;;;;;;9.97;7.53;;;;;;;;;;6254685;23;20406;-96
2020/12/14 01:26:54;;;;;;;8.70;6.93;;;;;;;;;;6258814;23;20415;-96
2020/12/14 01:29:20;;;;;;;10.10;7.07;;;;;;;;;;6261379;23;20980;-95
2020/12/14 01:31:47;;;;;;;10.90;6.60;;;;;;;;;;6256649;23;20409;-95
2020/12/14 01:34:14;;;;;;;9.00;6.57;;;;;;;;;;6258904;23;20446;-95
2020/12/14 01:36:40;;;;;;;8.83;6.80;;;;;;;;;;6264747;23;20389;-95
2020/12/14 01:39:06;;;;;;;8.70;7.00;;;;;;;;;;6256895;23;20409;-95
2020/12/14 01:41:32;;;;;;;10.63;6.37;;;;;;;;;;6258159;23;20415;-95
2020/12/14 01:43:58;;;;;;;10.13;6.97;;;;;;;;;;6255637;22;20418;-96
2020/12/14 01:46:28;;;;;;;10.33;6.37;;;;;;;;;;6258810;23;20793;-95
2020/12/14 01:49:00;;;;;;;7.80;6.43;;;;;;;;;;6259001;23;20953;-96
2020/12/14 01:51:27;;;;;;;8.60;6.03;;;;;;;;;;6259415;23;20477;-96
2020/12/14 01:56:35;;;;;;;9.90;6.90;;;;;;;;;;6258583;23;20413;-95
2020/12/14 01:59:01;;;;;;;9.67;7.17;;;;;;;;;;6253810;23;20420;-93
2020/12/14 02:01:27;;;;;;;9.43;7.10;;;;;;;;;;6258424;23;21014;-94
2020/12/14 02:03:54;;;;;;;8.30;6.00;;;;;;;;;;6257551;23;20398;-94
2020/12/14 02:06:24;;;;;;;9.80;6.90;;;;;;;;;;6259984;23;20413;-94
2020/12/14 02:08:50;;;;;;;9.97;6.97;;;;;;;;;;6257986;23;20835;-93
2020/12/14 02:11:16;;;;;;;11.10;7.27;;;;;;;;;;6255920;23;20419;-96
2020/12/14 02:13:42;;;;;;;13.43;7.37;;;;;;;;;;6259643;23;20412;-94
2020/12/14 02:16:08;;;;;;;7.70;6.10;;;;;;;;;;6259007;23;20468;-95
2020/12/14 02:18:35;;;;;;;8.90;6.60;;;;;;;;;;6257330;23;20497;-95
2020/12/14 02:21:01;;;;;;;8.43;6.10;;;;;;;;;;6253212;23;20412;-93
2020/12/14 02:23:27;;;;;;;9.87;6.23;;;;;;;;;;6256798;23;20432;-95
2020/12/14 02:25:54;;;;;;;10.43;7.07;;;;;;;;;;6254368;23;20409;-93
2020/12/14 02:28:20;;;;;;;8.57;6.30;;;;;;;;;;6259226;23;20417;-95
2020/12/14 02:30:46;;;;;;;8.50;6.53;;;;;;;;;;6257642;23;20464;-94
2020/12/14 02:33:12;;;;;;;7.60;5.63;;;;;;;;;;6259824;23;20406;-95
2020/12/14 02:35:39;;;;;;;11.23;6.33;;;;;;;;;;6261626;23;20516;-96
2020/12/14 02:38:09;;;;;;;9.10;6.03;;;;;;;;;;6257055;23;20409;-96
2020/12/14 02:40:35;;;;;;;9.90;6.73;;;;;;;;;;6234319;23;20440;-94
2020/12/14 02:43:02;;;;;;;7.37;5.50;;;;;;;;;;6257869;23;20412;-96
2020/12/14 02:45:31;;;;;;;9.83;7.13;;;;;;;;;;6259736;23;20413;-96
2020/12/14 02:47:57;;;;;;;6.67;5.23;;;;;;;;;;6259520;23;20416;-95
2020/12/14 02:50:23;;;;;;;8.47;6.40;;;;;;;;;;6258731;23;21060;-96
2020/12/14 02:52:49;;;;;;;9.27;6.63;;;;;;;;;;6257088;23;20410;-96
2020/12/14 02:55:15;;;;;;;9.80;6.70;;;;;;;;;;6260042;23;20502;-96
2020/12/14 02:57:43;;;;;;;7.53;5.87;;;;;;;;;;6260479;23;20402;-95
2020/12/14 03:00:13;;;;;;;7.13;5.70;;;;;;;;;;6259767;23;20786;-95
2020/12/14 03:02:39;;;;;;;8.57;5.83;;;;;;;;;;6257810;23;20414;-94
2020/12/14 03:05:05;;;;;;;8.00;6.37;;;;;;;;;;6256390;23;20413;-94
2020/12/14 03:07:31;;;;;;;12.17;7.37;;;;;;;;;;6260805;23;20420;-95
2020/12/14 03:09:58;;;;;;;7.90;5.87;;;;;;;;;;6234855;23;20432;-93
2020/12/14 03:12:24;;;;;;;9.47;6.77;;;;;;;;;;6258955;23;20413;-95
2020/12/14 03:14:51;;;;;;;10.50;6.50;;;;;;;;;;6260100;23;20444;-96
2020/12/14 03:17:21;;;;;;;6.93;5.93;;;;;;;;;;6232401;23;20430;-96
2020/12/14 03:19:48;;;;;;;5.73;5.13;;;;;;;;;;6236341;23;686545;-95
2020/12/14 03:22:15;;;;;;;9.67;6.77;;;;;;;;;;6238526;23;20178;-95
2020/12/14 03:24:42;;;;;;;7.87;5.97;;;;;;;;;;6259998;23;20456;-93
2020/12/14 03:27:08;;;;;;;7.80;5.80;;;;;;;;;;6259380;23;20436;-95
2020/12/14 03:29:34;;;;;;;6.93;5.17;;;;;;;;;;6258745;23;20420;-93
2020/12/14 03:32:00;;;;;;;7.20;5.50;;;;;;;;;;6259390;23;20440;-95
2020/12/14 03:34:27;;;;;;;8.70;6.47;;;;;;;;;;6261005;23;20447;-94
2020/12/14 03:36:53;;;;;;;10.43;7.33;;;;;;;;;;6258252;23;20418;-94
2020/12/14 03:39:23;;;;;;;8.73;6.27;;;;;;;;;;6259072;23;20905;-95
2020/12/14 03:41:49;;;;;;;10.40;6.80;;;;;;;;;;6262073;23;20915;-94
2020/12/14 03:44:15;;;;;;;8.07;5.97;;;;;;;;;;6260091;23;20402;-92
2020/12/14 03:46:41;;;;;;;6.73;6.03;;;;;;;;;;6259404;23;20427;-95
2020/12/14 03:49:09;;;;;;;7.33;5.07;;;;;;;;;;6256975;23;20398;-95
2020/12/14 03:51:36;;;;;;;9.83;7.00;;;;;;;;;;6258402;23;20406;-95
2020/12/14 03:54:02;;;;;;;8.23;6.53;;;;;;;;;;6258255;23;20420;-94
2020/12/14 03:56:28;;;;;;;8.37;6.37;;;;;;;;;;6261477;23;20409;-95
2020/12/14 03:58:55;;;;;;;10.77;7.57;;;;;;;;;;6259778;23;20424;-96
2020/12/14 04:01:21;;;;;;;8.50;6.83;;;;;;;;;;6258886;23;20409;-94
2020/12/14 04:03:47;;;;;;;7.30;6.03;;;;;;;;;;6260305;23;20409;-94
2020/12/14 04:06:17;;;;;;;9.77;7.40;;;;;;;;;;6258440;23;20440;-93
2020/12/14 04:08:44;;;;;;;8.83;6.63;;;;;;;;;;6259140;23;20428;-94
2020/12/14 04:11:10;;;;;;;9.33;7.40;;;;;;;;;;6256908;23;20402;-94
2020/12/14 04:13:36;;;;;;;7.43;5.40;;;;;;;;;;6259440;23;20409;-95
2020/12/14 04:16:02;;;;;;;9.50;6.23;;;;;;;;;;6257768;23;20452;-94
2020/12/14 04:18:28;;;;;;;9.43;6.40;;;;;;;;;;6258803;23;20464;-95
2020/12/14 04:20:55;;;;;;;9.20;6.83;;;;;;;;;;6259609;23;20401;-95
2020/12/14 04:23:21;;;;;;;10.40;6.50;;;;;;;;;;6256584;23;20460;-93
2020/12/14 04:25:49;;;;;;;10.63;6.83;;;;;;;;;;6256536;23;20421;-95
2020/12/14 04:28:15;;;;;;;9.33;7.00;;;;;;;;;;6257785;23;20405;-92
2020/12/14 04:30:41;;;;;;;8.87;6.40;;;;;;;;;;6258749;23;20414;-94
2020/12/14 04:33:07;;;;;;;8.03;6.70;;;;;;;;;;6259052;23;20405;-95
2020/12/14 04:35:33;;;;;;;8.30;6.13;;;;;;;;;;6260712;23;20500;-96
2020/12/14 04:37:59;;;;;;;8.37;6.67;;;;;;;;;;6259029;23;20440;-96
2020/12/14 04:40:27;;;;;;;9.83;7.00;;;;;;;;;;6260428;23;20414;-95
2020/12/14 04:43:00;;;;;;;7.87;5.40;;;;;;;;;;6260739;23;20409;-94
2020/12/14 04:45:28;;;;;;;8.50;6.30;;;;;;;;;;6260803;23;20416;-93
2020/12/14 04:47:55;;;;;;;8.77;6.50;;;;;;;;;;6261797;23;20416;-95
2020/12/14 04:50:22;;;;;;;10.97;6.87;;;;;;;;;;6261284;23;20469;-95
2020/12/14 04:52:48;;;;;;;10.73;7.00;;;;;;;;;;6260524;23;20410;-95
2020/12/14 04:55:19;;;;;;;6.00;5.30;;;;;;;;;;6263757;23;20441;-95
2020/12/14 04:57:46;;;;;;;7.90;6.33;;;;;;;;;;6264500;23;20416;-92
2020/12/14 05:00:14;;;;;;;9.87;6.33;;;;;;;;;;6255944;23;20406;-95
2020/12/14 05:02:40;;;;;;;7.40;6.10;;;;;;;;;;6259237;23;20441;-95
2020/12/14 05:05:10;;;;;;;10.33;6.97;;;;;;;;;;6259218;23;20417;-95
2020/12/14 05:07:39;;;;;;;8.03;6.00;;;;;;;;;;6260603;23;20452;-95
2020/12/14 05:10:06;;;;;;;10.47;7.50;;;;;;;;;;6257939;23;20409;-96
2020/12/14 05:12:40;;;;;;;11.30;6.77;;;;;;;;;;6258517;23;20397;-95
2020/12/14 05:15:21;;;;;;;9.53;6.93;;;;;;;;;;6258518;23;20456;-94
2020/12/14 05:17:47;;;;;;;10.60;7.90;;;;;;;;;;6256241;23;20800;-96
2020/12/14 05:20:14;;;;;;;9.77;7.57;;;;;;;;;;6258627;23;20424;-94
2020/12/14 05:22:54;;;;;;;6.57;5.27;;;;;;;;;;6256090;23;20476;-95
2020/12/14 05:25:20;;;;;;;11.93;7.27;;;;;;;;;;6256790;23;20405;-93
2020/12/14 05:27:46;;;;;;;11.50;6.93;;;;;;;;;;6256568;23;20406;-95
2020/12/14 05:30:12;;;;;;;10.23;6.13;;;;;;;;;;6256203;23;20406;-95
2020/12/14 05:32:39;;;;;;;9.50;6.00;;;;;;;;;;6258379;23;20422;-94
2020/12/14 05:35:09;;;;;;;10.20;7.13;;;;;;;;;;6259193;23;20476;-93
2020/12/14 05:37:35;;;;;;;10.13;7.30;;;;;;;;;;6257885;23;20410;-95
2020/12/14 05:40:11;;;;;;;9.67;6.60;;;;;;;;;;6260208;23;20412;-94
2020/12/14 05:42:42;;;;;;;10.57;7.40;;;;;;;;;;6258234;23;20413;-95
2020/12/14 05:45:11;;;;;;;11.80;8.50;;;;;;;;;;6259348;23;20607;-95
2020/12/14 05:47:37;;;;;;;8.90;7.20;;;;;;;;;;6259164;23;20414;-93
2020/12/14 05:50:08;;;;;;;10.90;7.77;;;;;;;;;;6258918;22;20412;-92
2020/12/14 05:52:36;;;;;;;10.97;7.20;;;;;;;;;;6257702;23;20409;-95
2020/12/14 05:55:02;;;;;;;10.90;6.70;;;;;;;;;;6256961;23;20463;-96
2020/12/14 05:57:32;;;;;;;8.70;6.60;;;;;;;;;;6256538;23;20419;-95
2020/12/14 06:00:31;;;;;;;11.60;8.47;;;;;;;;;;6256380;23;20443;-95
2020/12/14 06:02:57;;;;;;;13.40;7.90;;;;;;;;;;6256853;23;20452;-95
2020/12/14 06:05:25;;;;;;;10.53;7.23;;;;;;;;;;6254099;23;20429;-93
2020/12/14 06:07:58;;;;;;;10.30;6.80;;;;;;;;;;6257360;23;20421;-94
2020/12/14 06:10:25;;;;;;;15.80;6.90;;;;;;;;;;6254057;23;20409;-93
2020/12/14 06:12:55;;;;;;;11.60;7.30;;;;;;;;;;6254324;23;20408;-95
2020/12/14 06:15:23;;;;;;;10.33;7.80;;;;;;;;;;6257977;23;20502;-95
2020/12/14 06:17:49;;;;;;;9.20;6.73;;;;;;;;;;6257529;23;20430;-95
2020/12/14 06:20:18;;;;;;;10.30;7.05;;;;;;;;;;6260670;23;20390;-93
2020/12/14 06:22:46;;;;;;;8.30;6.40;;;;;;;;;;6255410;23;20178;-94
2020/12/14 06:25:12;;;;;;;8.40;6.50;;;;;;;;;;6256589;23;20418;-93
2020/12/14 06:27:39;;;;;;;10.23;7.27;;;;;;;;;;6254850;23;20413;-94
2020/12/14 06:30:24;;;;;;;12.03;7.60;;;;;;;;;;6231682;23;20420;-96
2020/12/14 06:32:57;;;;;;;8.00;6.00;;;;;;;;;;6258174;23;20425;-93
2020/12/14 06:35:41;;;;;;;9.40;7.00;;;;;;;;;;6260844;23;20453;-93
2020/12/14 06:38:08;;;;;;;10.43;8.20;;;;;;;;;;6256762;23;20428;-95
2020/12/14 06:40:50;;;;;;;9.30;7.23;;;;;;;;;;6260119;23;20417;-96
2020/12/14 06:43:27;;;;;;;9.53;7.30;;;;;;;;;;6269910;22;20404;-95
2020/12/14 06:45:55;;;;;;;11.17;7.07;;;;;;;;;;6260697;22;20468;-96
2020/12/14 06:48:29;;;;;;;11.47;8.10;;;;;;;;;;6260408;23;20412;-94
2020/12/14 06:50:56;;;;;;;11.35;7.80;;;;;;;;;;6260678;23;20400;-93
2020/12/14 06:53:40;;;;;;;9.83;7.23;;;;;;;;;;6264538;23;20181;-96
2020/12/14 06:56:17;;;;;;;9.57;7.47;;;;;;;;;;6262082;23;20448;-96
2020/12/14 06:58:44;;;;;;;10.23;7.20;;;;;;;;;;6257994;23;20409;-95
2020/12/14 07:01:29;;;;;;;13.47;8.47;;;;;;;;;;6246998;23;20425;-91
2020/12/14 07:04:04;;;;;;;11.10;6.87;;;;;;;;;;6252895;23;20428;-95
2020/12/14 07:06:30;;;;;;;9.60;6.87;;;;;;;;;;6251080;23;20480;-96
2020/12/14 07:11:37;;;;;;;9.17;6.90;;;;;;;;;;6253592;23;20449;-94
2020/12/14 07:14:23;;;;;;;9.87;6.77;;;;;;;;;;6257995;23;20422;-93
2020/12/14 07:16:50;;;;;;;8.30;6.77;;;;;;;;;;6258527;23;20416;-96
2020/12/14 07:19:16;;;;;;;8.70;6.87;;;;;;;;;;6261572;23;21032;-94
2020/12/14 07:21:48;;;;;;;9.63;6.90;;;;;;;;;;6260749;23;20410;-96
2020/12/14 07:24:19;;;;;;;8.83;6.70;;;;;;;;;;6262703;23;20408;-96
2020/12/14 07:27:00;;;;;;;9.63;7.00;;;;;;;;;;6263219;23;20421;-96
2020/12/14 07:29:32;;;;;;;9.83;7.20;;;;;;;;;;6254849;22;20470;-95
2020/12/14 07:32:03;;;;;;;9.23;6.90;;;;;;;;;;6263187;23;20409;-93
2020/12/14 07:34:30;;;;;;;9.30;6.80;;;;;;;;;;6260811;23;20460;-96
2020/12/14 07:45:14;;;;;;;10.67;7.13;;;;;;;;;;6238586;22;20429;-96
2020/12/14 07:47:43;;;;;;;8.17;6.10;;;;;;;;;;6261721;23;20401;-96
2020/12/14 07:50:15;;;;;;;7.93;6.60;;;;;;;;;;6260719;23;20464;-96
2020/12/14 07:52:46;;;;;;;10.67;6.90;;;;;;;;;;6269453;23;20414;-96
2020/12/14 07:55:13;;;;;;;8.30;6.40;;;;;;;;;;6267124;23;20445;-95
2020/12/14 07:57:44;;;;;;;7.73;6.10;;;;;;;;;;6238565;22;20482;-96
2020/12/14 08:00:13;;;;;;;10.90;7.57;;;;;;;;;;6239257;23;20425;-96
2020/12/14 08:03:01;;;;;;;7.13;5.80;;;;;;;;;;6240124;23;20425;-96
2020/12/14 08:08:34;;;;;;;9.53;7.47;;;;;;;;;;6236742;23;20438;-96
2020/12/14 08:11:09;;;;;;;7.17;5.60;;;;;;;;;;6241076;23;20411;-96
2020/12/14 08:13:35;;;;;;;9.00;7.60;;;;;;;;;;6252657;22;20468;-96
2020/12/14 08:16:02;;;;;;;11.77;8.77;;;;;;;;;;6271231;22;20429;-96
2020/12/14 08:24:55;;;;;;;11.57;6.33;;;;;;;;;;6254690;22;20438;-96
2020/12/14 08:30:22;;;;;;;6.83;5.63;;;;;;;;;;6294661;22;20444;-96
2020/12/14 08:33:07;;;;;;;18.40;8.63;;;;;;;;;;6257201;22;20486;-96
2020/12/14 08:35:34;;;;;;;15.20;10.20;;;;;;;;;;6234985;23;20441;-95
2020/12/14 08:38:02;;;;;;;9.10;7.00;;;;;;;;;;6243300;22;20484;-96
2020/12/14 08:45:57;;;;;;;8.70;7.13;;;;;;;;;;6233902;22;20466;-96
2020/12/14 08:48:25;;;;;;;10.90;7.60;;;;;;;;;;6232972;23;20478;-94
2020/12/14 08:51:03;;;;;;;11.87;8.10;;;;;;;;;;6230700;23;20419;-95
2020/12/14 08:53:30;;;;;;;6.97;5.30;;;;;;;;;;6232153;23;20504;-95
2020/12/14 08:56:17;;;;;;;9.40;7.40;;;;;;;;;;6235199;23;20438;-96
2020/12/14 08:58:54;;;;;;;6.90;6.20;;;;;;;;;;6237841;23;20394;-96
2020/12/14 09:01:23;;;;;;;10.30;8.17;;;;;;;;;;6237682;23;20465;-96
2020/12/14 09:03:53;;;;;;;9.67;7.47;;;;;;;;;;6233816;23;20391;-96
2020/12/14 09:09:12;;;;;;;9.43;7.07;;;;;;;;;;6237532;23;20501;-96
2020/12/14 09:11:49;;;;;;;9.70;7.57;;;;;;;;;;6209328;23;20417;-96
2020/12/14 09:14:24;;;;;;;8.60;6.60;;;;;;;;;;6231052;23;20426;-96
2020/12/14 09:16:51;;;;;;;10.87;7.37;;;;;;;;;;6231855;23;20525;-96
2020/12/14 09:19:27;;;;;;;9.53;5.47;;;;;;;;;;6232026;23;20421;-95
2020/12/14 09:21:59;;;;;;;8.50;7.20;;;;;;;;;;6229474;23;20832;-96
2020/12/14 09:24:50;;;;;;;15.93;7.20;;;;;;;;;;6229459;23;20409;-95
2020/12/14 09:27:16;;;;;;;7.73;6.50;;;;;;;;;;6230853;23;20402;-95
2020/12/14 09:29:43;;;;;;;8.20;5.87;;;;;;;;;;6231245;23;20407;-94
2020/12/14 09:32:11;;;;;;;7.20;5.13;;;;;;;;;;6230330;23;20474;-96
2020/12/14 09:34:40;;;;;;;8.90;7.50;;;;;;;;;;6233866;23;20402;-96
2020/12/14 09:37:06;;;;;;;10.77;7.20;;;;;;;;;;6233168;23;20505;-96
2020/12/14 09:39:33;;;;;;;9.93;7.30;;;;;;;;;;6234147;23;20478;-96
2020/12/14 09:41:59;;;;;;;9.87;6.97;;;;;;;;;;6240757;22;21487;-95
2020/12/14 09:44:28;;;;;;;9.50;7.32;;;;;;;;;;6258504;23;20409;-93
2020/12/14 09:46:54;;;;;;;8.20;5.97;;;;;;;;;;6258984;23;20241;-95
2020/12/14 09:49:21;;;;;;;10.83;6.90;;;;;;;;;;6257478;23;20937;-95
2020/12/14 09:51:47;;;;;;;9.03;6.90;;;;;;;;;;6261236;23;20409;-96
2020/12/14 09:54:15;;;;;;;8.07;6.33;;;;;;;;;;6259442;23;20476;-96
2020/12/14 09:56:45;;;;;;;7.67;6.27;;;;;;;;;;6256141;23;20481;-94
2020/12/14 09:59:11;;;;;;;8.07;6.13;;;;;;;;;;6260551;23;20401;-96
2020/12/14 10:01:37;;;;;;;6.83;5.07;;;;;;;;;;6258143;23;20416;-94
2020/12/14 10:04:15;;;;;;;9.83;5.50;;;;;;;;;;6257082;23;20402;-96
2020/12/14 10:06:45;;;;;;;7.67;6.20;;;;;;;;;;6255309;23;20406;-95
2020/12/14 10:09:11;;;;;;;8.00;6.47;;;;;;;;;;6261693;23;20417;-95
2020/12/14 10:11:37;;;;;;;7.57;6.00;;;;;;;;;;6268321;22;20409;-94
2020/12/14 10:14:03;;;;;;;9.90;6.17;;;;;;;;;;6264444;23;20410;-93
2020/12/14 10:16:29;;;;;;;8.40;6.07;;;;;;;;;;6264396;23;20460;-95
2020/12/14 10:18:56;;;;;;;5.97;5.17;;;;;;;;;;6257147;23;20397;-96
2020/12/14 10:21:22;;;;;;;7.60;5.40;;;;;;;;;;6258132;23;20413;-94
2020/12/14 10:23:49;;;;;;;7.37;5.93;;;;;;;;;;6255863;23;20419;-95
2020/12/14 10:26:16;;;;;;;6.50;4.80;;;;;;;;;;6255656;23;20426;-96
2020/12/14 10:28:50;;;;;;;5.70;5.10;;;;;;;;;;6256613;23;21544;-96
2020/12/14 10:31:16;;;;;;;7.93;6.73;;;;;;;;;;6258194;23;20409;-95
2020/12/14 10:33:46;;;;;;;7.17;5.43;;;;;;;;;;6252931;23;20407;-94
2020/12/14 10:36:12;;;;;;;6.20;5.20;;;;;;;;;;6255991;23;20449;-92
2020/12/14 10:38:39;;;;;;;9.63;5.27;;;;;;;;;;6257071;23;20413;-93
2020/12/14 10:41:06;;;;;;;3.77;3.40;;;;;;;;;;6258927;23;20417;-94
2020/12/14 10:43:32;;;;;;;7.00;5.63;;;;;;;;;;6258528;23;20787;-96
2020/12/14 10:45:58;;;;;;;7.23;5.80;;;;;;;;;;6258981;23;20429;-96
2020/12/14 10:48:24;;;;;;;8.57;5.90;;;;;;;;;;6260926;23;20409;-95
2020/12/14 10:50:50;;;;;;;8.43;6.10;;;;;;;;;;6258896;23;20413;-94
2020/12/14 10:53:16;;;;;;;8.00;5.30;;;;;;;;;;6260761;22;20406;-96
2020/12/14 10:55:42;;;;;;;7.17;5.30;;;;;;;;;;6258164;23;20954;-95
2020/12/14 10:58:09;;;;;;;8.47;5.87;;;;;;;;;;6256773;23;20413;-96
2020/12/14 11:00:35;;;;;;;8.33;5.93;;;;;;;;;;6255504;23;20485;-95
2020/12/14 11:03:02;;;;;;;9.73;5.50;;;;;;;;;;6258485;23;20409;-95
2020/12/14 11:05:29;;;;;;;7.33;5.70;;;;;;;;;;6252901;23;20413;-93
2020/12/14 11:07:56;;;;;;;8.33;5.83;;;;;;;;;;6248822;23;20409;-95
2020/12/14 11:10:22;;;;;;;7.30;4.20;;;;;;;;;;6249480;23;20432;-94
2020/12/14 11:12:48;;;;;;;6.67;5.83;;;;;;;;;;6246501;23;20430;-93
2020/12/14 11:15:15;;;;;;;9.50;6.20;;;;;;;;;;6249474;23;20437;-92
2020/12/14 11:17:41;;;;;;;7.50;5.90;;;;;;;;;;6247764;23;20413;-95
2020/12/14 11:20:09;;;;;;;7.03;5.70;;;;;;;;;;6250824;23;20468;-95
2020/12/14 11:22:35;;;;;;;8.13;5.97;;;;;;;;;;6256622;23;20413;-94
2020/12/14 11:25:03;;;;;;;10.47;8.40;;;;;;;;;;6257974;23;20416;-92
2020/12/14 11:27:30;;;;;;;6.87;5.50;;;;;;;;;;6259601;23;20422;-95
2020/12/14 11:29:56;;;;;;;8.10;5.93;;;;;;;;;;6257948;23;20412;-95
2020/12/14 11:32:23;;;;;;;6.37;5.63;;;;;;;;;;6258677;23;20413;-94
2020/12/14 11:34:49;;;;;;;6.47;5.63;;;;;;;;;;6258129;23;20420;-95
2020/12/14 11:37:15;;;;;;;10.17;7.10;;;;;;;;;;6258353;23;20456;-94
2020/12/14 11:39:42;;;;;;;6.67;5.20;;;;;;;;;;6256864;23;20417;-93
2020/12/14 11:42:10;;;;;;;7.67;6.17;;;;;;;;;;6257719;23;20516;-93
2020/12/14 11:44:36;;;;;;;7.07;5.93;;;;;;;;;;6259368;23;20416;-94
2020/12/14 11:47:02;;;;;;;9.47;5.87;;;;;;;;;;6258684;23;20515;-94
2020/12/14 11:49:29;;;;;;;12.27;7.03;;;;;;;;;;6258812;23;20410;-95
2020/12/14 11:51:55;;;;;;;7.60;6.10;;;;;;;;;;6259228;23;20412;-96
2020/12/14 11:54:21;;;;;;;6.63;5.00;;;;;;;;;;6266269;23;20414;-95
2020/12/14 11:56:47;;;;;;;7.13;5.37;;;;;;;;;;6258099;23;20841;-94
2020/12/14 11:59:14;;;;;;;7.23;5.70;;;;;;;;;;6257676;23;20417;-95
2020/12/14 12:01:40;;;;;;;7.97;6.10;;;;;;;;;;6255991;23;20421;-92
2020/12/14 12:04:06;;;;;;;15.33;6.57;;;;;;;;;;6259766;23;20406;-95
2020/12/14 12:06:33;;;;;;;7.17;4.80;;;;;;;;;;6258532;23;20401;-93
2020/12/14 12:08:59;;;;;;;9.60;5.27;;;;;;;;;;6260050;23;20398;-93
2020/12/14 12:11:25;;;;;;;9.00;6.40;;;;;;;;;;6259276;23;20406;-96
2020/12/14 12:13:53;;;;;;;6.40;5.40;;;;;;;;;;6261826;23;20414;-96
2020/12/14 12:16:19;;;;;;;6.60;5.93;;;;;;;;;;6255918;23;20460;-94
2020/12/14 12:18:48;;;;;;;6.23;5.63;;;;;;;;;;6255586;23;20406;-95
2020/12/14 12:21:14;;;;;;;7.30;5.27;;;;;;;;;;6258527;23;20405;-96
2020/12/14 12:23:42;;;;;;;6.87;4.40;;;;;;;;;;6257948;23;20465;-95
2020/12/14 12:26:08;;;;;;;8.00;6.27;;;;;;;;;;6260285;23;20425;-95
2020/12/14 12:28:37;;;;;;;8.47;6.83;;;;;;;;;;6259780;23;20481;-95
2020/12/14 12:31:06;;;;;;;7.40;5.13;;;;;;;;;;6260950;23;20416;-96
2020/12/14 12:33:33;;;;;;;8.10;6.00;;;;;;;;;;6259197;23;20398;-96
2020/12/14 12:36:02;;;;;;;6.40;5.40;;;;;;;;;;6261018;23;20445;-96
2020/12/14 12:38:30;;;;;;;9.13;4.47;;;;;;;;;;6259799;23;20432;-96
2020/12/14 12:40:56;;;;;;;8.40;6.20;;;;;;;;;;6258047;23;20428;-94
2020/12/14 12:43:22;;;;;;;8.90;5.97;;;;;;;;;;6259333;23;20812;-96
2020/12/14 12:45:50;;;;;;;9.37;6.37;;;;;;;;;;6261257;23;20425;-96
2020/12/14 12:48:16;;;;;;;8.67;7.27;;;;;;;;;;6259403;23;20417;-96
2020/12/14 12:53:32;;;;;;;10.30;7.60;;;;;;;;;;6255113;23;20425;-94
2020/12/14 12:56:00;;;;;;;7.30;6.07;;;;;;;;;;6262871;23;20452;-96
2020/12/14 12:58:27;;;;;;;8.50;7.17;;;;;;;;;;6263833;23;20402;-94
2020/12/14 13:00:56;;;;;;;6.93;5.83;;;;;;;;;;6265794;23;20413;-94
2020/12/14 13:03:29;;;;;;;7.80;6.10;;;;;;;;;;6259710;23;20406;-96
2020/12/14 13:06:01;;;;;;;7.10;6.17;;;;;;;;;;6261381;23;20505;-96
2020/12/14 13:08:27;;;;;;;8.40;6.53;;;;;;;;;;6260002;23;20425;-96
2020/12/14 13:10:53;;;;;;;7.73;5.90;;;;;;;;;;6262642;23;20410;-94
2020/12/14 13:13:36;;;;;;;9.07;7.33;;;;;;;;;;6261000;23;20406;-96
2020/12/14 13:16:03;;;;;;;10.63;7.43;;;;;;;;;;6258910;23;20446;-96
2020/12/14 13:18:30;;;;;;;10.43;8.00;;;;;;;;;;6256427;23;20476;-96
2020/12/14 13:20:59;;;;;;;9.80;7.33;;;;;;;;;;6257592;23;20429;-96
2020/12/14 13:23:25;;;;;;;8.33;6.13;;;;;;;;;;6261646;23;20416;-94
2020/12/14 13:25:51;;;;;;;9.63;7.27;;;;;;;;;;6264942;22;20915;-95
2020/12/14 13:28:17;;;;;;;12.80;7.10;;;;;;;;;;6263899;23;20422;-96
2020/12/14 13:30:43;;;;;;;8.90;6.70;;;;;;;;;;6261022;23;20414;-95
2020/12/14 13:33:10;;;;;;;7.67;6.77;;;;;;;;;;6262450;23;20406;-93
2020/12/14 13:35:39;;;;;;;7.30;6.33;;;;;;;;;;6261152;23;20507;-96
2020/12/14 13:38:05;;;;;;;10.07;6.97;;;;;;;;;;6263822;23;20413;-96
2020/12/14 13:40:31;;;;;;;14.53;7.20;;;;;;;;;;6260334;23;20489;-94
2020/12/14 13:43:06;;;;;;;8.80;6.70;;;;;;;;;;6264531;22;20504;-96
2020/12/14 13:45:43;;;;;;;11.30;7.90;;;;;;;;;;6269566;23;20481;-95
2020/12/14 13:48:12;;;;;;;7.67;6.67;;;;;;;;;;6267673;23;20370;-96
2020/12/14 13:50:42;;;;;;;7.17;5.37;;;;;;;;;;6267025;23;20425;-96
2020/12/14 13:53:08;;;;;;;6.47;5.53;;;;;;;;;;6262841;23;20436;-95
2020/12/14 13:55:34;;;;;;;10.53;7.27;;;;;;;;;;6261501;23;20451;-93
2020/12/14 13:58:00;;;;;;;7.37;5.97;;;;;;;;;;6260996;23;20404;-95
2020/12/14 14:00:26;;;;;;;8.37;6.23;;;;;;;;;;6258648;23;20421;-95
2020/12/14 14:02:52;;;;;;;8.77;6.10;;;;;;;;;;6260497;23;20402;-94
2020/12/14 14:05:19;;;;;;;9.00;6.30;;;;;;;;;;6261294;23;20409;-96
2020/12/14 14:07:45;;;;;;;10.70;8.30;;;;;;;;;;6261714;23;20413;-94
2020/12/14 14:10:41;;;;;;;8.40;6.60;;;;;;;;;;6261141;23;20445;-96
2020/12/14 14:13:15;;;;;;;9.50;6.80;;;;;;;;;;6259590;23;20907;-95
2020/12/14 14:15:41;;;;;;;9.40;6.30;;;;;;;;;;6232317;23;20454;-96
2020/12/14 14:18:07;;;;;;;9.00;7.30;;;;;;;;;;6259081;23;20405;-93
2020/12/14 14:20:38;;;;;;;9.90;6.23;;;;;;;;;;6258869;23;20933;-95
2020/12/14 14:23:06;;;;;;;8.53;6.97;;;;;;;;;;6266253;23;20396;-96
2020/12/14 14:28:13;;;;;;;8.47;6.63;;;;;;;;;;6204420;23;20498;-93
2020/12/14 14:33:27;;;;;;;10.40;6.93;;;;;;;;;;6198978;23;20487;-96
2020/12/14 14:35:54;;;;;;;9.90;7.10;;;;;;;;;;6174294;23;20463;-96
2020/12/14 14:38:21;;;;;;;9.30;7.30;;;;;;;;;;6211529;22;20464;-95
2020/12/14 14:40:47;;;;;;;9.47;7.27;;;;;;;;;;6226253;23;20441;-95
2020/12/14 14:43:19;;;;;;;8.67;6.10;;;;;;;;;;6228556;23;20948;-95
2020/12/14 14:45:45;;;;;;;9.37;7.10;;;;;;;;;;6227488;23;20412;-96
2020/12/14 14:48:11;;;;;;;8.40;6.50;;;;;;;;;;6224269;23;20410;-95
2020/12/14 14:50:37;;;;;;;7.80;6.97;;;;;;;;;;6229009;23;20414;-94
2020/12/14 14:53:05;;;;;;;6.73;4.67;;;;;;;;;;6229267;23;20424;-95
2020/12/14 14:55:31;;;;;;;8.53;7.60;;;;;;;;;;6228253;23;20433;-93
2020/12/14 14:57:57;;;;;;;8.83;6.87;;;;;;;;;;6228882;23;20406;-95
2020/12/14 15:00:25;;;;;;;7.20;6.10;;;;;;;;;;6230859;23;21162;-94
2020/12/14 15:02:51;;;;;;;12.02;6.55;;;;;;;;;;6231419;23;20926;-96
2020/12/14 15:05:17;;;;;;;11.27;6.70;;;;;;;;;;6225647;23;20189;-95
2020/12/14 15:10:42;;;;;;;7.03;5.63;;;;;;;;;;6226582;23;20935;-96
2020/12/14 15:13:08;;;;;;;8.40;6.70;;;;;;;;;;6221192;23;20402;-95
2020/12/14 15:15:34;;;;;;;8.43;7.03;;;;;;;;;;6225767;23;20410;-95
2020/12/14 15:18:09;;;;;;;10.60;8.07;;;;;;;;;;6230848;23;20402;-96
2020/12/14 15:20:36;;;;;;;8.97;7.50;;;;;;;;;;6238697;23;20391;-96
2020/12/14 15:23:04;;;;;;;9.60;7.27;;;;;;;;;;6225750;23;20418;-96
2020/12/14 15:25:30;;;;;;;10.23;6.93;;;;;;;;;;6227994;23;20413;-96
2020/12/14 15:27:57;;;;;;;7.53;6.73;;;;;;;;;;6230762;23;20407;-96
2020/12/14 15:30:23;;;;;;;8.00;6.80;;;;;;;;;;6226712;23;20497;-96
2020/12/14 15:32:49;;;;;;;10.20;7.47;;;;;;;;;;6226913;23;20179;-92